sensor_id;sensor_type;location;lat;lon;timestamp;temperature;humidity
20498;DHT22;10407;53.238;10.448;2023-02-08T00:00:54;-1.60;99.90
20498;DHT22;10407;53.238;10.448;2023-02-08T00:03:22;-1.80;99.90
20498;DHT22;10407;53.238;10.448;2023-02-08T00:05:50;-1.80;99.90
20498;DHT22;10407;53.238;10.448;2023-02-08T00:08:17;-1.70;99.90
20498;DHT22;10407;53.238;10.448;2023-02-08T00:10:45;-1.60;99.90
20498;DHT22;10407;53.238;10.448;2023-02-08T00:13:12;-1.70;99.90
20498;DHT22;10407;53.238;10.448;2023-02-08T00:15:41;-1.70;99.90
20498;DHT22;10407;53.238;10.448;2023-02-08T00:18:09;-1.60;99.90
20498;DHT22;10407;53.238;10.448;2023-02-08T00:20:41;-1.50;99.90
20498;DHT22;10407;53.238;10.448;2023-02-08T00:23:09;-1.60;99.90
20498;DHT22;10407;53.238;10.448;2023-02-08T00:25:37;-1.70;99.90
20498;DHT22;10407;53.238;10.448;2023-02-08T00:28:05;-1.70;99.90
20498;DHT22;10407;53.238;10.448;2023-02-08T00:30:34;-1.90;99.90
20498;DHT22;10407;53.238;10.448;2023-02-08T00:33:02;-2.00;99.90
20498;DHT22;10407;53.238;10.448;2023-02-08T00:35:30;-1.90;99.90
20498;DHT22;10407;53.238;10.448;2023-02-08T00:37:57;-1.90;99.90
20498;DHT22;10407;53.238;10.448;2023-02-08T00:40:26;-1.90;99.90
20498;DHT22;10407;53.238;10.448;2023-02-08T00:42:54;-2.00;99.90
20498;DHT22;10407;53.238;10.448;2023-02-08T00:45:21;-2.00;99.90
20498;DHT22;10407;53.238;10.448;2023-02-08T00:47:49;-2.00;99.90
20498;DHT22;10407;53.238;10.448;2023-02-08T00:50:16;-1.80;99.90
20498;DHT22;10407;53.238;10.448;2023-02-08T00:52:44;-1.90;99.90
20498;DHT22;10407;53.238;10.448;2023-02-08T00:55:11;-1.90;99.90
20498;DHT22;10407;53.238;10.448;2023-02-08T00:57:39;-1.80;99.90
20498;DHT22;10407;53.238;10.448;2023-02-08T01:00:07;-1.80;99.90
20498;DHT22;10407;53.238;10.448;2023-02-08T01:02:37;-1.80;99.90
20498;DHT22;10407;53.238;10.448;2023-02-08T01:05:05;-1.90;99.90
20498;DHT22;10407;53.238;10.448;2023-02-08T01:07:38;-2.00;99.90
20498;DHT22;10407;53.238;10.448;2023-02-08T01:10:09;-2.00;99.90
20498;DHT22;10407;53.238;10.448;2023-02-08T01:12:38;-2.10;99.90
20498;DHT22;10407;53.238;10.448;2023-02-08T01:15:08;-2.00;99.90
20498;DHT22;10407;53.238;10.448;2023-02-08T01:17:35;-2.10;99.90
20498;DHT22;10407;53.238;10.448;2023-02-08T01:20:03;-2.00;99.90
20498;DHT22;10407;53.238;10.448;2023-02-08T01:22:30;-2.20;99.90
20498;DHT22;10407;53.238;10.448;2023-02-08T01:24:58;-2.20;99.90
20498;DHT22;10407;53.238;10.448;2023-02-08T01:27:26;-2.20;99.90
20498;DHT22;10407;53.238;10.448;2023-02-08T01:29:54;-2.30;99.90
20498;DHT22;10407;53.238;10.448;2023-02-08T01:32:21;-2.40;99.90
20498;DHT22;10407;53.238;10.448;2023-02-08T01:34:49;-2.50;99.90
20498;DHT22;10407;53.238;10.448;2023-02-08T01:37:16;-2.40;99.90
20498;DHT22;10407;53.238;10.448;2023-02-08T01:39:44;-2.30;99.90
20498;DHT22;10407;53.238;10.448;2023-02-08T01:42:16;-2.20;99.90
20498;DHT22;10407;53.238;10.448;2023-02-08T01:48:11;-2.10;99.90
20498;DHT22;10407;53.238;10.448;2023-02-08T01:50:50;-2.00;99.90
20498;DHT22;10407;53.238;10.448;2023-02-08T01:53:13;-1.90;99.90
20498;DHT22;10407;53.238;10.448;2023-02-08T01:55:43;-1.90;99.90
20498;DHT22;10407;53.238;10.448;2023-02-08T01:58:12;-2.00;99.90
20498;DHT22;10407;53.238;10.448;2023-02-08T02:00:40;-2.20;99.90
20498;DHT22;10407;53.238;10.448;2023-02-08T02:03:07;-2.00;99.90
20498;DHT22;10407;53.238;10.448;2023-02-08T02:05:41;-2.00;99.90
20498;DHT22;10407;53.238;10.448;2023-02-08T02:08:10;-2.20;99.90
20498;DHT22;10407;53.238;10.448;2023-02-08T02:10:40;-2.40;99.90
20498;DHT22;10407;53.238;10.448;2023-02-08T02:13:20;-2.50;99.90
20498;DHT22;10407;53.238;10.448;2023-02-08T02:15:48;-2.20;99.90
20498;DHT22;10407;53.238;10.448;2023-02-08T02:18:25;-2.20;99.90
20498;DHT22;10407;53.238;10.448;2023-02-08T02:26:52;-2.20;99.90
20498;DHT22;10407;53.238;10.448;2023-02-08T02:29:40;-1.90;99.90
20498;DHT22;10407;53.238;10.448;2023-02-08T02:32:28;-1.80;99.90
20498;DHT22;10407;53.238;10.448;2023-02-08T02:35:04;-1.80;99.90
20498;DHT22;10407;53.238;10.448;2023-02-08T02:43:12;-2.10;99.90
20498;DHT22;10407;53.238;10.448;2023-02-08T02:46:23;-2.20;99.90
20498;DHT22;10407;53.238;10.448;2023-02-08T02:52:14;-2.00;99.90
20498;DHT22;10407;53.238;10.448;2023-02-08T02:56:52;-2.20;99.90
20498;DHT22;10407;53.238;10.448;2023-02-08T02:59:21;-2.20;99.90
20498;DHT22;10407;53.238;10.448;2023-02-08T03:01:49;-2.40;99.90
20498;DHT22;10407;53.238;10.448;2023-02-08T03:04:45;-2.40;99.90
20498;DHT22;10407;53.238;10.448;2023-02-08T03:06:57;-2.50;99.90
20498;DHT22;10407;53.238;10.448;2023-02-08T03:12:26;-2.60;99.90
20498;DHT22;10407;53.238;10.448;2023-02-08T03:15:00;-2.40;99.90
20498;DHT22;10407;53.238;10.448;2023-02-08T03:18:11;-2.40;99.90
20498;DHT22;10407;53.238;10.448;2023-02-08T03:20:28;-2.30;99.90
20498;DHT22;10407;53.238;10.448;2023-02-08T03:22:58;-2.20;99.90
20498;DHT22;10407;53.238;10.448;2023-02-08T03:25:41;-2.20;99.90
20498;DHT22;10407;53.238;10.448;2023-02-08T03:30:51;-2.40;99.90
20498;DHT22;10407;53.238;10.448;2023-02-08T03:33:54;-2.50;99.90
20498;DHT22;10407;53.238;10.448;2023-02-08T03:35:58;-2.50;99.90
20498;DHT22;10407;53.238;10.448;2023-02-08T03:38:34;-2.50;99.90
20498;DHT22;10407;53.238;10.448;2023-02-08T03:40:59;-2.80;99.90
20498;DHT22;10407;53.238;10.448;2023-02-08T03:43:35;-2.40;99.90
20498;DHT22;10407;53.238;10.448;2023-02-08T03:48:33;-2.60;99.90
20498;DHT22;10407;53.238;10.448;2023-02-08T03:51:03;-2.60;99.90
20498;DHT22;10407;53.238;10.448;2023-02-08T03:53:31;-2.70;99.90
20498;DHT22;10407;53.238;10.448;2023-02-08T03:56:02;-2.60;99.90
20498;DHT22;10407;53.238;10.448;2023-02-08T03:58:41;-2.60;99.90
20498;DHT22;10407;53.238;10.448;2023-02-08T04:01:29;-2.80;99.90
20498;DHT22;10407;53.238;10.448;2023-02-08T04:03:55;-2.70;99.90
20498;DHT22;10407;53.238;10.448;2023-02-08T04:06:24;-2.60;99.90
20498;DHT22;10407;53.238;10.448;2023-02-08T04:08:51;-2.50;99.90
20498;DHT22;10407;53.238;10.448;2023-02-08T04:11:19;-2.40;99.90
20498;DHT22;10407;53.238;10.448;2023-02-08T04:13:47;-2.40;99.90
20498;DHT22;10407;53.238;10.448;2023-02-08T04:16:14;-2.30;99.90
20498;DHT22;10407;53.238;10.448;2023-02-08T04:18:42;-2.40;99.90
20498;DHT22;10407;53.238;10.448;2023-02-08T04:21:10;-2.40;99.90
20498;DHT22;10407;53.238;10.448;2023-02-08T04:23:37;-2.30;99.90
20498;DHT22;10407;53.238;10.448;2023-02-08T04:26:05;-2.60;99.90
20498;DHT22;10407;53.238;10.448;2023-02-08T04:28:34;-2.80;99.90
20498;DHT22;10407;53.238;10.448;2023-02-08T04:31:02;-2.70;99.90
20498;DHT22;10407;53.238;10.448;2023-02-08T04:33:29;-2.60;99.90
20498;DHT22;10407;53.238;10.448;2023-02-08T04:35:57;-2.70;99.90
20498;DHT22;10407;53.238;10.448;2023-02-08T04:38:24;-2.70;99.90
20498;DHT22;10407;53.238;10.448;2023-02-08T04:40:52;-2.70;99.90
20498;DHT22;10407;53.238;10.448;2023-02-08T04:43:19;-2.70;99.90
20498;DHT22;10407;53.238;10.448;2023-02-08T04:45:49;-2.90;99.90
20498;DHT22;10407;53.238;10.448;2023-02-08T04:48:18;-2.70;99.90
20498;DHT22;10407;53.238;10.448;2023-02-08T04:50:45;-2.50;99.90
20498;DHT22;10407;53.238;10.448;2023-02-08T04:53:13;-2.50;99.90
20498;DHT22;10407;53.238;10.448;2023-02-08T04:55:41;-2.90;99.90
20498;DHT22;10407;53.238;10.448;2023-02-08T04:58:08;-2.90;99.90
20498;DHT22;10407;53.238;10.448;2023-02-08T05:00:36;-2.70;99.90
20498;DHT22;10407;53.238;10.448;2023-02-08T05:03:03;-2.60;99.90
20498;DHT22;10407;53.238;10.448;2023-02-08T05:05:31;-2.60;99.90
20498;DHT22;10407;53.238;10.448;2023-02-08T05:07:58;-2.80;99.90
20498;DHT22;10407;53.238;10.448;2023-02-08T05:10:26;-2.80;99.90
20498;DHT22;10407;53.238;10.448;2023-02-08T05:12:54;-2.80;99.90
20498;DHT22;10407;53.238;10.448;2023-02-08T05:15:22;-2.90;99.90
20498;DHT22;10407;53.238;10.448;2023-02-08T05:17:49;-3.10;99.90
20498;DHT22;10407;53.238;10.448;2023-02-08T05:20:17;-2.90;99.90
20498;DHT22;10407;53.238;10.448;2023-02-08T05:22:44;-2.70;99.90
20498;DHT22;10407;53.238;10.448;2023-02-08T05:25:12;-2.60;99.90
20498;DHT22;10407;53.238;10.448;2023-02-08T05:27:39;-2.60;99.90
20498;DHT22;10407;53.238;10.448;2023-02-08T05:30:07;-2.80;99.90
20498;DHT22;10407;53.238;10.448;2023-02-08T05:32:35;-2.80;99.90
20498;DHT22;10407;53.238;10.448;2023-02-08T05:35:03;-2.90;99.90
20498;DHT22;10407;53.238;10.448;2023-02-08T05:37:30;-2.80;99.90
20498;DHT22;10407;53.238;10.448;2023-02-08T05:39:58;-2.80;99.90
20498;DHT22;10407;53.238;10.448;2023-02-08T05:42:25;-3.00;99.90
20498;DHT22;10407;53.238;10.448;2023-02-08T05:44:53;-3.10;99.90
20498;DHT22;10407;53.238;10.448;2023-02-08T05:47:20;-3.10;99.90
20498;DHT22;10407;53.238;10.448;2023-02-08T05:49:48;-3.00;99.90
20498;DHT22;10407;53.238;10.448;2023-02-08T05:52:15;-3.00;99.90
20498;DHT22;10407;53.238;10.448;2023-02-08T05:54:43;-3.10;99.90
20498;DHT22;10407;53.238;10.448;2023-02-08T05:57:10;-3.10;99.90
20498;DHT22;10407;53.238;10.448;2023-02-08T05:59:38;-3.10;99.90
20498;DHT22;10407;53.238;10.448;2023-02-08T06:02:06;-3.10;99.90
20498;DHT22;10407;53.238;10.448;2023-02-08T06:04:33;-3.00;99.90
20498;DHT22;10407;53.238;10.448;2023-02-08T06:07:01;-3.20;99.90
20498;DHT22;10407;53.238;10.448;2023-02-08T06:09:28;-3.30;99.90
20498;DHT22;10407;53.238;10.448;2023-02-08T06:11:56;-3.30;99.90
20498;DHT22;10407;53.238;10.448;2023-02-08T06:14:24;-3.20;99.90
20498;DHT22;10407;53.238;10.448;2023-02-08T06:16:51;-3.10;99.90
20498;DHT22;10407;53.238;10.448;2023-02-08T06:19:19;-3.10;99.90
20498;DHT22;10407;53.238;10.448;2023-02-08T06:21:46;-3.20;99.90
20498;DHT22;10407;53.238;10.448;2023-02-08T06:24:14;-3.20;99.90
20498;DHT22;10407;53.238;10.448;2023-02-08T06:26:42;-3.30;99.90
20498;DHT22;10407;53.238;10.448;2023-02-08T06:29:10;-3.30;99.90
20498;DHT22;10407;53.238;10.448;2023-02-08T06:31:37;-3.30;99.90
20498;DHT22;10407;53.238;10.448;2023-02-08T06:34:05;-3.20;99.90
20498;DHT22;10407;53.238;10.448;2023-02-08T06:36:33;-3.10;99.90
20498;DHT22;10407;53.238;10.448;2023-02-08T06:39:01;-3.10;99.90
20498;DHT22;10407;53.238;10.448;2023-02-08T06:41:28;-3.00;99.90
20498;DHT22;10407;53.238;10.448;2023-02-08T06:43:56;-3.00;99.90
20498;DHT22;10407;53.238;10.448;2023-02-08T06:46:25;-3.20;99.90
20498;DHT22;10407;53.238;10.448;2023-02-08T06:48:53;-3.20;99.90
20498;DHT22;10407;53.238;10.448;2023-02-08T06:51:22;-3.20;99.90
20498;DHT22;10407;53.238;10.448;2023-02-08T06:53:50;-3.20;99.90
20498;DHT22;10407;53.238;10.448;2023-02-08T06:56:19;-3.20;99.90
20498;DHT22;10407;53.238;10.448;2023-02-08T06:58:46;-3.20;99.90
20498;DHT22;10407;53.238;10.448;2023-02-08T07:01:14;-3.20;99.90
20498;DHT22;10407;53.238;10.448;2023-02-08T07:03:42;-3.20;99.90
20498;DHT22;10407;53.238;10.448;2023-02-08T07:06:13;-3.30;99.90
20498;DHT22;10407;53.238;10.448;2023-02-08T07:08:42;-3.20;99.90
20498;DHT22;10407;53.238;10.448;2023-02-08T07:11:12;-2.80;99.90
20498;DHT22;10407;53.238;10.448;2023-02-08T07:13:40;-2.30;99.90
20498;DHT22;10407;53.238;10.448;2023-02-08T07:16:08;-2.30;99.90
20498;DHT22;10407;53.238;10.448;2023-02-08T07:18:36;-2.20;99.90
20498;DHT22;10407;53.238;10.448;2023-02-08T07:21:04;-2.00;99.90
20498;DHT22;10407;53.238;10.448;2023-02-08T07:23:32;-1.80;99.90
20498;DHT22;10407;53.238;10.448;2023-02-08T07:26:05;-1.30;99.90
20498;DHT22;10407;53.238;10.448;2023-02-08T07:28:33;-1.20;99.90
20498;DHT22;10407;53.238;10.448;2023-02-08T07:31:09;-1.30;99.90
20498;DHT22;10407;53.238;10.448;2023-02-08T07:33:37;-1.10;99.90
20498;DHT22;10407;53.238;10.448;2023-02-08T07:36:06;-1.10;99.90
20498;DHT22;10407;53.238;10.448;2023-02-08T07:38:34;-0.80;99.90
20498;DHT22;10407;53.238;10.448;2023-02-08T07:41:03;-0.60;99.90
20498;DHT22;10407;53.238;10.448;2023-02-08T07:43:33;-0.70;99.90
20498;DHT22;10407;53.238;10.448;2023-02-08T07:46:09;-0.50;99.90
20498;DHT22;10407;53.238;10.448;2023-02-08T07:48:34;-0.50;99.90
20498;DHT22;10407;53.238;10.448;2023-02-08T07:51:02;-0.40;99.90
20498;DHT22;10407;53.238;10.448;2023-02-08T07:53:30;-0.20;99.90
20498;DHT22;10407;53.238;10.448;2023-02-08T07:55:58;-0.10;99.90
20498;DHT22;10407;53.238;10.448;2023-02-08T07:58:26;0.10;99.90
20498;DHT22;10407;53.238;10.448;2023-02-08T08:00:53;0.40;99.90
20498;DHT22;10407;53.238;10.448;2023-02-08T08:03:21;0.30;99.90
20498;DHT22;10407;53.238;10.448;2023-02-08T08:05:50;0.20;99.90
20498;DHT22;10407;53.238;10.448;2023-02-08T08:08:19;0.60;99.90
20498;DHT22;10407;53.238;10.448;2023-02-08T08:10:46;0.70;99.90
20498;DHT22;10407;53.238;10.448;2023-02-08T08:13:15;1.00;99.90
20498;DHT22;10407;53.238;10.448;2023-02-08T08:15:42;0.80;99.90
20498;DHT22;10407;53.238;10.448;2023-02-08T08:18:10;1.10;99.90
20498;DHT22;10407;53.238;10.448;2023-02-08T08:20:37;1.30;99.90
20498;DHT22;10407;53.238;10.448;2023-02-08T08:23:05;1.20;99.90
20498;DHT22;10407;53.238;10.448;2023-02-08T08:25:32;1.40;99.90
20498;DHT22;10407;53.238;10.448;2023-02-08T08:28:00;1.40;99.90
20498;DHT22;10407;53.238;10.448;2023-02-08T08:30:28;1.40;99.90
20498;DHT22;10407;53.238;10.448;2023-02-08T08:32:56;1.60;99.90
20498;DHT22;10407;53.238;10.448;2023-02-08T08:35:24;1.70;99.90
20498;DHT22;10407;53.238;10.448;2023-02-08T08:37:51;2.00;99.90
20498;DHT22;10407;53.238;10.448;2023-02-08T08:40:19;2.00;99.90
20498;DHT22;10407;53.238;10.448;2023-02-08T08:42:46;2.10;99.90
20498;DHT22;10407;53.238;10.448;2023-02-08T08:45:14;1.90;99.90
20498;DHT22;10407;53.238;10.448;2023-02-08T08:47:41;2.00;99.90
20498;DHT22;10407;53.238;10.448;2023-02-08T08:50:09;2.00;99.90
20498;DHT22;10407;53.238;10.448;2023-02-08T08:52:36;1.90;99.90
20498;DHT22;10407;53.238;10.448;2023-02-08T08:55:06;1.80;99.90
20498;DHT22;10407;53.238;10.448;2023-02-08T08:57:34;2.00;99.90
20498;DHT22;10407;53.238;10.448;2023-02-08T09:00:01;2.20;99.90
20498;DHT22;10407;53.238;10.448;2023-02-08T09:02:29;2.20;99.90
20498;DHT22;10407;53.238;10.448;2023-02-08T09:04:57;2.50;99.90
20498;DHT22;10407;53.238;10.448;2023-02-08T09:07:25;2.60;99.90
20498;DHT22;10407;53.238;10.448;2023-02-08T09:09:53;2.40;99.90
20498;DHT22;10407;53.238;10.448;2023-02-08T09:12:20;2.60;99.90
20498;DHT22;10407;53.238;10.448;2023-02-08T09:14:48;2.30;99.90
20498;DHT22;10407;53.238;10.448;2023-02-08T09:17:16;2.30;99.90
20498;DHT22;10407;53.238;10.448;2023-02-08T09:19:43;2.50;99.90
20498;DHT22;10407;53.238;10.448;2023-02-08T09:22:13;2.60;99.90
20498;DHT22;10407;53.238;10.448;2023-02-08T09:24:40;2.50;99.90
20498;DHT22;10407;53.238;10.448;2023-02-08T09:27:08;2.70;99.90
20498;DHT22;10407;53.238;10.448;2023-02-08T09:29:35;2.80;99.90
20498;DHT22;10407;53.238;10.448;2023-02-08T09:32:03;2.80;99.90
20498;DHT22;10407;53.238;10.448;2023-02-08T09:34:30;3.20;99.90
20498;DHT22;10407;53.238;10.448;2023-02-08T09:36:58;3.20;99.90
20498;DHT22;10407;53.238;10.448;2023-02-08T09:39:25;3.20;99.90
20498;DHT22;10407;53.238;10.448;2023-02-08T09:47:23;3.70;99.90
20498;DHT22;10407;53.238;10.448;2023-02-08T09:49:59;3.80;99.90
20498;DHT22;10407;53.238;10.448;2023-02-08T09:52:34;3.70;99.90
20498;DHT22;10407;53.238;10.448;2023-02-08T09:55:00;4.00;99.90
20498;DHT22;10407;53.238;10.448;2023-02-08T09:57:30;4.00;99.90
20498;DHT22;10407;53.238;10.448;2023-02-08T10:00:11;4.20;99.90
20498;DHT22;10407;53.238;10.448;2023-02-08T10:02:35;4.10;99.90
20498;DHT22;10407;53.238;10.448;2023-02-08T10:05:09;4.10;99.90
20498;DHT22;10407;53.238;10.448;2023-02-08T10:07:36;4.10;98.60
20498;DHT22;10407;53.238;10.448;2023-02-08T10:10:13;4.30;99.50
20498;DHT22;10407;53.238;10.448;2023-02-08T10:12:59;4.00;96.90
20498;DHT22;10407;53.238;10.448;2023-02-08T10:18:19;4.30;97.70
20498;DHT22;10407;53.238;10.448;2023-02-08T10:21:05;4.20;96.10
20498;DHT22;10407;53.238;10.448;2023-02-08T10:29:16;4.10;96.00
20498;DHT22;10407;53.238;10.448;2023-02-08T10:31:50;4.20;95.70
20498;DHT22;10407;53.238;10.448;2023-02-08T10:34:42;4.40;94.00
20498;DHT22;10407;53.238;10.448;2023-02-08T10:37:19;4.40;94.80
20498;DHT22;10407;53.238;10.448;2023-02-08T10:39:44;4.30;92.60
20498;DHT22;10407;53.238;10.448;2023-02-08T10:42:18;4.40;93.20
20498;DHT22;10407;53.238;10.448;2023-02-08T10:45:14;4.40;94.40
20498;DHT22;10407;53.238;10.448;2023-02-08T10:50:36;4.50;93.10
20498;DHT22;10407;53.238;10.448;2023-02-08T10:53:05;4.30;93.30
20498;DHT22;10407;53.238;10.448;2023-02-08T10:55:35;4.20;94.30
20498;DHT22;10407;53.238;10.448;2023-02-08T10:58:04;4.20;94.80
20498;DHT22;10407;53.238;10.448;2023-02-08T11:00:36;4.50;96.10
20498;DHT22;10407;53.238;10.448;2023-02-08T11:03:59;4.40;96.10
20498;DHT22;10407;53.238;10.448;2023-02-08T11:05:44;4.30;95.70
20498;DHT22;10407;53.238;10.448;2023-02-08T11:08:15;4.30;95.80
20498;DHT22;10407;53.238;10.448;2023-02-08T11:11:04;4.10;95.90
20498;DHT22;10407;53.238;10.448;2023-02-08T11:13:38;4.10;97.80
20498;DHT22;10407;53.238;10.448;2023-02-08T11:16:12;4.60;98.40
20498;DHT22;10407;53.238;10.448;2023-02-08T11:18:45;4.40;96.40
20498;DHT22;10407;53.238;10.448;2023-02-08T11:24:07;4.60;97.80
20498;DHT22;10407;53.238;10.448;2023-02-08T11:26:39;4.50;96.90
20498;DHT22;10407;53.238;10.448;2023-02-08T11:29:15;4.40;97.70
20498;DHT22;10407;53.238;10.448;2023-02-08T11:32:16;4.60;97.90
20498;DHT22;10407;53.238;10.448;2023-02-08T11:34:44;4.70;98.60
20498;DHT22;10407;53.238;10.448;2023-02-08T11:37:20;4.60;98.40
20498;DHT22;10407;53.238;10.448;2023-02-08T11:39:52;4.40;97.90
20498;DHT22;10407;53.238;10.448;2023-02-08T11:42:34;4.30;98.90
20498;DHT22;10407;53.238;10.448;2023-02-08T11:45:03;4.50;99.60
20498;DHT22;10407;53.238;10.448;2023-02-08T11:47:33;4.60;99.00
20498;DHT22;10407;53.238;10.448;2023-02-08T11:50:05;4.70;99.20
20498;DHT22;10407;53.238;10.448;2023-02-08T11:52:36;4.40;98.40
20498;DHT22;10407;53.238;10.448;2023-02-08T11:55:13;4.50;99.10
20498;DHT22;10407;53.238;10.448;2023-02-08T11:57:52;4.50;99.60
20498;DHT22;10407;53.238;10.448;2023-02-08T12:00:25;4.60;99.90
20498;DHT22;10407;53.238;10.448;2023-02-08T12:03:10;4.50;99.40
20498;DHT22;10407;53.238;10.448;2023-02-08T12:05:44;4.50;99.50
20498;DHT22;10407;53.238;10.448;2023-02-08T12:08:18;4.40;99.90
20498;DHT22;10407;53.238;10.448;2023-02-08T12:10:49;4.30;99.90
20498;DHT22;10407;53.238;10.448;2023-02-08T12:13:42;4.30;99.90
20498;DHT22;10407;53.238;10.448;2023-02-08T12:16:43;4.30;99.90
20498;DHT22;10407;53.238;10.448;2023-02-08T12:28:12;4.10;99.90
20498;DHT22;10407;53.238;10.448;2023-02-08T12:30:41;4.20;99.90
20498;DHT22;10407;53.238;10.448;2023-02-08T12:37:57;4.10;99.90
20498;DHT22;10407;53.238;10.448;2023-02-08T12:46:58;4.20;99.90
20498;DHT22;10407;53.238;10.448;2023-02-08T12:49:50;4.30;99.90
20498;DHT22;10407;53.238;10.448;2023-02-08T12:54:59;4.30;99.90
20498;DHT22;10407;53.238;10.448;2023-02-08T12:57:28;4.40;99.90
20498;DHT22;10407;53.238;10.448;2023-02-08T13:00:00;4.20;99.90
20498;DHT22;10407;53.238;10.448;2023-02-08T13:02:37;4.20;99.90
20498;DHT22;10407;53.238;10.448;2023-02-08T13:05:03;4.20;99.90
20498;DHT22;10407;53.238;10.448;2023-02-08T13:07:33;4.10;99.90
20498;DHT22;10407;53.238;10.448;2023-02-08T13:10:05;4.10;99.90
20498;DHT22;10407;53.238;10.448;2023-02-08T13:12:43;4.20;99.90
20498;DHT22;10407;53.238;10.448;2023-02-08T13:15:14;4.30;99.90
20498;DHT22;10407;53.238;10.448;2023-02-08T13:18:00;4.40;99.90
20498;DHT22;10407;53.238;10.448;2023-02-08T13:22:45;4.40;99.90
20498;DHT22;10407;53.238;10.448;2023-02-08T13:25:26;4.40;99.90
20498;DHT22;10407;53.238;10.448;2023-02-08T13:27:43;4.30;99.90
20498;DHT22;10407;53.238;10.448;2023-02-08T13:30:19;4.20;99.90
20498;DHT22;10407;53.238;10.448;2023-02-08T13:32:48;4.20;99.90
20498;DHT22;10407;53.238;10.448;2023-02-08T13:35:20;4.40;99.90
20498;DHT22;10407;53.238;10.448;2023-02-08T13:38:01;4.40;99.90
20498;DHT22;10407;53.238;10.448;2023-02-08T13:40:27;4.30;99.90
20498;DHT22;10407;53.238;10.448;2023-02-08T13:43:03;4.20;99.90
20498;DHT22;10407;53.238;10.448;2023-02-08T13:45:38;4.20;99.90
20498;DHT22;10407;53.238;10.448;2023-02-08T13:48:05;4.20;99.90
20498;DHT22;10407;53.238;10.448;2023-02-08T13:50:47;4.20;99.90
20498;DHT22;10407;53.238;10.448;2023-02-08T13:53:16;4.40;99.90
20498;DHT22;10407;53.238;10.448;2023-02-08T13:55:55;4.30;99.90
20498;DHT22;10407;53.238;10.448;2023-02-08T14:11:55;4.30;99.90
20498;DHT22;10407;53.238;10.448;2023-02-08T14:14:30;4.30;99.90
20498;DHT22;10407;53.238;10.448;2023-02-08T14:19:45;4.20;99.90
20498;DHT22;10407;53.238;10.448;2023-02-08T14:22:17;4.20;99.90
20498;DHT22;10407;53.238;10.448;2023-02-08T14:25:00;4.10;99.90
20498;DHT22;10407;53.238;10.448;2023-02-08T14:27:43;4.20;99.90
20498;DHT22;10407;53.238;10.448;2023-02-08T14:32:46;4.20;99.90
20498;DHT22;10407;53.238;10.448;2023-02-08T14:35:25;4.10;99.90
20498;DHT22;10407;53.238;10.448;2023-02-08T14:43:28;4.20;99.90
20498;DHT22;10407;53.238;10.448;2023-02-08T14:45:56;4.10;99.90
20498;DHT22;10407;53.238;10.448;2023-02-08T14:48:32;4.10;99.90
20498;DHT22;10407;53.238;10.448;2023-02-08T14:53:55;4.10;99.90
20498;DHT22;10407;53.238;10.448;2023-02-08T14:56:25;4.10;99.90
20498;DHT22;10407;53.238;10.448;2023-02-08T14:59:05;4.00;99.90
20498;DHT22;10407;53.238;10.448;2023-02-08T15:01:39;4.10;99.90
20498;DHT22;10407;53.238;10.448;2023-02-08T15:04:06;3.90;99.90
20498;DHT22;10407;53.238;10.448;2023-02-08T15:09:17;4.00;99.90
20498;DHT22;10407;53.238;10.448;2023-02-08T15:12:05;3.90;99.90
20498;DHT22;10407;53.238;10.448;2023-02-08T15:14:19;3.80;99.90
20498;DHT22;10407;53.238;10.448;2023-02-08T15:16:48;3.90;99.90
20498;DHT22;10407;53.238;10.448;2023-02-08T15:19:29;3.90;99.90
20498;DHT22;10407;53.238;10.448;2023-02-08T15:22:16;3.80;99.90
20498;DHT22;10407;53.238;10.448;2023-02-08T15:24:52;3.80;99.90
20498;DHT22;10407;53.238;10.448;2023-02-08T15:27:25;3.70;99.90
20498;DHT22;10407;53.238;10.448;2023-02-08T15:29:53;3.70;99.90
20498;DHT22;10407;53.238;10.448;2023-02-08T15:32:22;3.60;99.90
20498;DHT22;10407;53.238;10.448;2023-02-08T15:35:00;3.60;99.90
20498;DHT22;10407;53.238;10.448;2023-02-08T15:37:24;3.50;99.90
20498;DHT22;10407;53.238;10.448;2023-02-08T15:39:57;3.50;99.90
20498;DHT22;10407;53.238;10.448;2023-02-08T15:42:27;3.50;99.90
20498;DHT22;10407;53.238;10.448;2023-02-08T15:44:56;3.40;99.90
20498;DHT22;10407;53.238;10.448;2023-02-08T15:47:31;3.30;99.90
20498;DHT22;10407;53.238;10.448;2023-02-08T15:49:59;3.30;99.90
20498;DHT22;10407;53.238;10.448;2023-02-08T15:52:31;3.30;99.90
20498;DHT22;10407;53.238;10.448;2023-02-08T15:54:58;3.30;99.90
20498;DHT22;10407;53.238;10.448;2023-02-08T15:57:38;3.20;99.90
20498;DHT22;10407;53.238;10.448;2023-02-08T16:00:13;3.20;99.90
20498;DHT22;10407;53.238;10.448;2023-02-08T16:02:41;3.20;99.90
20498;DHT22;10407;53.238;10.448;2023-02-08T16:05:18;3.10;99.90
20498;DHT22;10407;53.238;10.448;2023-02-08T16:07:46;3.00;99.90
20498;DHT22;10407;53.238;10.448;2023-02-08T16:13:05;3.00;99.90
20498;DHT22;10407;53.238;10.448;2023-02-08T16:15:47;2.90;99.90
20498;DHT22;10407;53.238;10.448;2023-02-08T16:18:39;2.90;99.90
20498;DHT22;10407;53.238;10.448;2023-02-08T16:23:55;2.60;99.90
20498;DHT22;10407;53.238;10.448;2023-02-08T16:26:25;2.50;99.90
20498;DHT22;10407;53.238;10.448;2023-02-08T16:28:58;2.50;99.90
20498;DHT22;10407;53.238;10.448;2023-02-08T16:31:28;2.50;99.90
20498;DHT22;10407;53.238;10.448;2023-02-08T16:34:02;2.40;99.90
20498;DHT22;10407;53.238;10.448;2023-02-08T16:36:38;2.40;99.90
20498;DHT22;10407;53.238;10.448;2023-02-08T16:44:31;2.30;99.90
20498;DHT22;10407;53.238;10.448;2023-02-08T16:46:59;2.30;99.90
20498;DHT22;10407;53.238;10.448;2023-02-08T16:49:27;2.20;99.90
20498;DHT22;10407;53.238;10.448;2023-02-08T16:51:57;2.20;99.90
20498;DHT22;10407;53.238;10.448;2023-02-08T16:54:25;2.20;99.90
20498;DHT22;10407;53.238;10.448;2023-02-08T16:56:55;2.10;99.90
20498;DHT22;10407;53.238;10.448;2023-02-08T16:59:26;2.00;99.90
20498;DHT22;10407;53.238;10.448;2023-02-08T17:01:54;2.00;99.90
20498;DHT22;10407;53.238;10.448;2023-02-08T17:04:23;2.00;99.90
20498;DHT22;10407;53.238;10.448;2023-02-08T17:06:50;1.90;99.90
20498;DHT22;10407;53.238;10.448;2023-02-08T17:09:18;1.90;99.90
20498;DHT22;10407;53.238;10.448;2023-02-08T17:11:46;1.80;99.90
20498;DHT22;10407;53.238;10.448;2023-02-08T17:14:13;1.80;99.90
20498;DHT22;10407;53.238;10.448;2023-02-08T17:16:41;1.80;99.90
20498;DHT22;10407;53.238;10.448;2023-02-08T17:19:16;1.80;99.90
20498;DHT22;10407;53.238;10.448;2023-02-08T17:21:40;1.70;99.90
20498;DHT22;10407;53.238;10.448;2023-02-08T17:24:07;1.80;99.90
20498;DHT22;10407;53.238;10.448;2023-02-08T17:26:38;1.70;99.90
20498;DHT22;10407;53.238;10.448;2023-02-08T17:29:06;1.70;99.90
20498;DHT22;10407;53.238;10.448;2023-02-08T17:31:33;1.70;99.90
20498;DHT22;10407;53.238;10.448;2023-02-08T17:34:01;1.60;99.90
20498;DHT22;10407;53.238;10.448;2023-02-08T17:36:34;1.50;99.90
20498;DHT22;10407;53.238;10.448;2023-02-08T17:39:02;1.50;99.90